sensor_id;sensor_type;location;lat;lon;timestamp;P1;durP1;ratioP1;P2;durP2;ratioP2
7965;SDS011;4028;43.272;26.932;2023-08-31T00:02:19;9.98;;;8.98;;
7965;SDS011;4028;43.272;26.932;2023-08-31T00:04:45;10.32;;;9.40;;
7965;SDS011;4028;43.272;26.932;2023-08-31T00:07:10;9.50;;;8.70;;
7965;SDS011;4028;43.272;26.932;2023-08-31T00:09:36;10.30;;;9.23;;
7965;SDS011;4028;43.272;26.932;2023-08-31T00:12:02;10.30;;;9.25;;
7965;SDS011;4028;43.272;26.932;2023-08-31T00:14:28;10.98;;;9.93;;
7965;SDS011;4028;43.272;26.932;2023-08-31T00:16:53;10.18;;;9.18;;
7965;SDS011;4028;43.272;26.932;2023-08-31T00:19:22;10.80;;;9.70;;
7965;SDS011;4028;43.272;26.932;2023-08-31T00:21:48;10.63;;;9.43;;
7965;SDS011;4028;43.272;26.932;2023-08-31T00:24:13;12.15;;;10.18;;
7965;SDS011;4028;43.272;26.932;2023-08-31T00:26:39;11.07;;;9.68;;
7965;SDS011;4028;43.272;26.932;2023-08-31T00:29:06;11.27;;;10.20;;
7965;SDS011;4028;43.272;26.932;2023-08-31T00:31:32;11.20;;;10.27;;
7965;SDS011;4028;43.272;26.932;2023-08-31T00:33:59;11.38;;;9.98;;
7965;SDS011;4028;43.272;26.932;2023-08-31T00:36:29;10.07;;;9.20;;
7965;SDS011;4028;43.272;26.932;2023-08-31T00:38:54;10.13;;;9.32;;
7965;SDS011;4028;43.272;26.932;2023-08-31T00:41:21;9.27;;;8.32;;
7965;SDS011;4028;43.272;26.932;2023-08-31T00:43:47;9.88;;;9.02;;
7965;SDS011;4028;43.272;26.932;2023-08-31T00:46:13;8.85;;;8.05;;
7965;SDS011;4028;43.272;26.932;2023-08-31T00:48:40;8.90;;;8.10;;
7965;SDS011;4028;43.272;26.932;2023-08-31T00:51:05;9.70;;;8.77;;
7965;SDS011;4028;43.272;26.932;2023-08-31T00:53:32;9.98;;;9.18;;
7965;SDS011;4028;43.272;26.932;2023-08-31T00:55:58;10.63;;;9.57;;
7965;SDS011;4028;43.272;26.932;2023-08-31T00:58:24;10.25;;;9.25;;
7965;SDS011;4028;43.272;26.932;2023-08-31T01:06:32;10.60;;;9.65;;
7965;SDS011;4028;43.272;26.932;2023-08-31T01:09:41;10.23;;;9.35;;
7965;SDS011;4028;43.272;26.932;2023-08-31T01:12:18;9.90;;;8.95;;
7965;SDS011;4028;43.272;26.932;2023-08-31T01:15:02;11.68;;;9.35;;
7965;SDS011;4028;43.272;26.932;2023-08-31T01:17:30;11.27;;;10.23;;
7965;SDS011;4028;43.272;26.932;2023-08-31T01:19:58;11.82;;;10.50;;
7965;SDS011;4028;43.272;26.932;2023-08-31T01:22:31;12.38;;;11.10;;
7965;SDS011;4028;43.272;26.932;2023-08-31T01:25:05;12.10;;;10.90;;
7965;SDS011;4028;43.272;26.932;2023-08-31T01:27:34;12.13;;;11.00;;
7965;SDS011;4028;43.272;26.932;2023-08-31T01:30:02;11.88;;;10.75;;
7965;SDS011;4028;43.272;26.932;2023-08-31T01:32:29;12.13;;;10.90;;
7965;SDS011;4028;43.272;26.932;2023-08-31T01:34:55;12.23;;;11.18;;
7965;SDS011;4028;43.272;26.932;2023-08-31T01:37:35;12.20;;;11.10;;
7965;SDS011;4028;43.272;26.932;2023-08-31T01:40:14;11.73;;;10.73;;
7965;SDS011;4028;43.272;26.932;2023-08-31T01:42:43;11.65;;;10.43;;
7965;SDS011;4028;43.272;26.932;2023-08-31T01:45:11;12.82;;;11.02;;
7965;SDS011;4028;43.272;26.932;2023-08-31T01:47:40;11.15;;;10.07;;
7965;SDS011;4028;43.272;26.932;2023-08-31T01:50:06;12.52;;;9.45;;
7965;SDS011;4028;43.272;26.932;2023-08-31T01:52:32;11.35;;;10.30;;
7965;SDS011;4028;43.272;26.932;2023-08-31T01:54:57;10.88;;;9.95;;
7965;SDS011;4028;43.272;26.932;2023-08-31T01:57:23;11.25;;;10.25;;
7965;SDS011;4028;43.272;26.932;2023-08-31T01:59:48;11.32;;;9.85;;
7965;SDS011;4028;43.272;26.932;2023-08-31T02:02:13;9.77;;;8.93;;
7965;SDS011;4028;43.272;26.932;2023-08-31T02:04:39;10.68;;;9.77;;
7965;SDS011;4028;43.272;26.932;2023-08-31T02:07:05;9.40;;;8.38;;
7965;SDS011;4028;43.272;26.932;2023-08-31T02:09:30;9.48;;;8.55;;
7965;SDS011;4028;43.272;26.932;2023-08-31T02:11:56;9.95;;;8.93;;
7965;SDS011;4028;43.272;26.932;2023-08-31T02:14:21;9.57;;;8.63;;
7965;SDS011;4028;43.272;26.932;2023-08-31T02:16:47;11.32;;;9.70;;
7965;SDS011;4028;43.272;26.932;2023-08-31T02:19:13;11.23;;;9.98;;
7965;SDS011;4028;43.272;26.932;2023-08-31T02:21:38;11.10;;;10.05;;
7965;SDS011;4028;43.272;26.932;2023-08-31T02:24:04;11.27;;;10.18;;
7965;SDS011;4028;43.272;26.932;2023-08-31T02:26:29;9.93;;;9.15;;
7965;SDS011;4028;43.272;26.932;2023-08-31T02:28:55;9.90;;;9.10;;
7965;SDS011;4028;43.272;26.932;2023-08-31T02:31:20;11.00;;;9.95;;
7965;SDS011;4028;43.272;26.932;2023-08-31T02:33:46;11.00;;;10.05;;
7965;SDS011;4028;43.272;26.932;2023-08-31T02:36:12;12.43;;;11.23;;
7965;SDS011;4028;43.272;26.932;2023-08-31T02:38:37;17.08;;;12.70;;
7965;SDS011;4028;43.272;26.932;2023-08-31T02:41:03;12.95;;;11.70;;
7965;SDS011;4028;43.272;26.932;2023-08-31T02:43:28;13.63;;;12.32;;
7965;SDS011;4028;43.272;26.932;2023-08-31T02:46:01;13.00;;;11.90;;
7965;SDS011;4028;43.272;26.932;2023-08-31T02:48:28;13.35;;;12.15;;
7965;SDS011;4028;43.272;26.932;2023-08-31T02:50:54;14.43;;;13.02;;
7965;SDS011;4028;43.272;26.932;2023-08-31T02:53:21;13.63;;;12.45;;
7965;SDS011;4028;43.272;26.932;2023-08-31T02:55:47;14.27;;;11.93;;
7965;SDS011;4028;43.272;26.932;2023-08-31T02:58:13;14.63;;;13.25;;
7965;SDS011;4028;43.272;26.932;2023-08-31T03:00:39;14.00;;;12.65;;
7965;SDS011;4028;43.272;26.932;2023-08-31T03:03:07;14.90;;;12.77;;
7965;SDS011;4028;43.272;26.932;2023-08-31T03:05:33;15.10;;;13.60;;
7965;SDS011;4028;43.272;26.932;2023-08-31T03:07:59;14.60;;;13.18;;
7965;SDS011;4028;43.272;26.932;2023-08-31T03:10:24;14.15;;;12.93;;
7965;SDS011;4028;43.272;26.932;2023-08-31T03:12:50;14.70;;;13.30;;
7965;SDS011;4028;43.272;26.932;2023-08-31T03:15:15;18.95;;;14.20;;
7965;SDS011;4028;43.272;26.932;2023-08-31T03:17:41;16.90;;;13.68;;
7965;SDS011;4028;43.272;26.932;2023-08-31T03:20:07;14.40;;;13.15;;
7965;SDS011;4028;43.272;26.932;2023-08-31T03:22:32;15.45;;;13.98;;
7965;SDS011;4028;43.272;26.932;2023-08-31T03:24:58;14.75;;;13.38;;
7965;SDS011;4028;43.272;26.932;2023-08-31T03:27:24;15.55;;;14.05;;
7965;SDS011;4028;43.272;26.932;2023-08-31T03:29:50;15.23;;;13.93;;
7965;SDS011;4028;43.272;26.932;2023-08-31T03:32:15;15.60;;;13.13;;
7965;SDS011;4028;43.272;26.932;2023-08-31T03:34:41;15.10;;;13.52;;
7965;SDS011;4028;43.272;26.932;2023-08-31T03:37:06;14.82;;;13.27;;
7965;SDS011;4028;43.272;26.932;2023-08-31T03:39:32;15.10;;;13.52;;
7965;SDS011;4028;43.272;26.932;2023-08-31T03:41:58;15.15;;;13.10;;
7965;SDS011;4028;43.272;26.932;2023-08-31T03:44:24;14.98;;;13.45;;
7965;SDS011;4028;43.272;26.932;2023-08-31T03:46:49;14.80;;;13.30;;
7965;SDS011;4028;43.272;26.932;2023-08-31T03:49:15;14.65;;;13.27;;
7965;SDS011;4028;43.272;26.932;2023-08-31T03:51:40;15.18;;;13.63;;
7965;SDS011;4028;43.272;26.932;2023-08-31T03:54:06;15.15;;;13.65;;
7965;SDS011;4028;43.272;26.932;2023-08-31T03:56:31;14.70;;;13.05;;
7965;SDS011;4028;43.272;26.932;2023-08-31T03:58:57;15.00;;;13.43;;
7965;SDS011;4028;43.272;26.932;2023-08-31T04:01:22;14.48;;;13.07;;
7965;SDS011;4028;43.272;26.932;2023-08-31T04:03:48;15.20;;;13.27;;
7965;SDS011;4028;43.272;26.932;2023-08-31T04:06:14;16.10;;;13.63;;
7965;SDS011;4028;43.272;26.932;2023-08-31T04:08:39;15.18;;;13.68;;
7965;SDS011;4028;43.272;26.932;2023-08-31T04:11:04;16.92;;;13.60;;
7965;SDS011;4028;43.272;26.932;2023-08-31T04:13:30;15.45;;;13.70;;
7965;SDS011;4028;43.272;26.932;2023-08-31T04:15:55;15.10;;;13.52;;
7965;SDS011;4028;43.272;26.932;2023-08-31T04:18:21;16.58;;;14.82;;
7965;SDS011;4028;43.272;26.932;2023-08-31T04:20:50;15.32;;;13.93;;
7965;SDS011;4028;43.272;26.932;2023-08-31T04:23:16;16.40;;;14.10;;
7965;SDS011;4028;43.272;26.932;2023-08-31T04:25:43;15.52;;;13.93;;
7965;SDS011;4028;43.272;26.932;2023-08-31T04:28:08;16.75;;;14.57;;
7965;SDS011;4028;43.272;26.932;2023-08-31T04:30:34;16.13;;;14.50;;
7965;SDS011;4028;43.272;26.932;2023-08-31T04:32:59;16.02;;;14.63;;
7965;SDS011;4028;43.272;26.932;2023-08-31T04:35:25;15.93;;;14.43;;
7965;SDS011;4028;43.272;26.932;2023-08-31T04:37:50;17.08;;;14.30;;
7965;SDS011;4028;43.272;26.932;2023-08-31T04:40:16;16.48;;;14.45;;
7965;SDS011;4028;43.272;26.932;2023-08-31T04:42:42;16.02;;;14.52;;
7965;SDS011;4028;43.272;26.932;2023-08-31T04:45:08;15.75;;;14.23;;
7965;SDS011;4028;43.272;26.932;2023-08-31T04:47:33;17.92;;;14.50;;
7965;SDS011;4028;43.272;26.932;2023-08-31T04:49:59;15.98;;;14.48;;
7965;SDS011;4028;43.272;26.932;2023-08-31T04:52:24;16.40;;;14.82;;
7965;SDS011;4028;43.272;26.932;2023-08-31T04:54:50;16.00;;;14.60;;
7965;SDS011;4028;43.272;26.932;2023-08-31T04:57:15;17.15;;;15.43;;
7965;SDS011;4028;43.272;26.932;2023-08-31T04:59:41;15.98;;;14.57;;
7965;SDS011;4028;43.272;26.932;2023-08-31T05:02:06;17.02;;;15.30;;
7965;SDS011;4028;43.272;26.932;2023-08-31T05:04:32;16.75;;;15.45;;
7965;SDS011;4028;43.272;26.932;2023-08-31T05:06:57;15.07;;;13.63;;
7965;SDS011;4028;43.272;26.932;2023-08-31T05:09:23;17.60;;;15.63;;
7965;SDS011;4028;43.272;26.932;2023-08-31T05:11:49;17.05;;;15.25;;
7965;SDS011;4028;43.272;26.932;2023-08-31T05:14:15;19.00;;;15.18;;
7965;SDS011;4028;43.272;26.932;2023-08-31T05:16:41;17.10;;;15.48;;
7965;SDS011;4028;43.272;26.932;2023-08-31T05:19:06;19.70;;;15.90;;
7965;SDS011;4028;43.272;26.932;2023-08-31T05:21:32;19.55;;;16.25;;
7965;SDS011;4028;43.272;26.932;2023-08-31T05:23:58;17.30;;;15.70;;
7965;SDS011;4028;43.272;26.932;2023-08-31T05:26:23;17.60;;;15.85;;
7965;SDS011;4028;43.272;26.932;2023-08-31T05:28:49;19.52;;;16.48;;
7965;SDS011;4028;43.272;26.932;2023-08-31T05:31:15;19.00;;;16.17;;
7965;SDS011;4028;43.272;26.932;2023-08-31T05:33:40;19.95;;;15.43;;
7965;SDS011;4028;43.272;26.932;2023-08-31T05:36:06;21.48;;;17.25;;
7965;SDS011;4028;43.272;26.932;2023-08-31T05:38:31;20.13;;;18.05;;
7965;SDS011;4028;43.272;26.932;2023-08-31T05:41:06;19.45;;;17.60;;
7965;SDS011;4028;43.272;26.932;2023-08-31T05:43:33;18.35;;;16.20;;
7965;SDS011;4028;43.272;26.932;2023-08-31T05:46:00;18.42;;;16.52;;
7965;SDS011;4028;43.272;26.932;2023-08-31T05:48:25;19.23;;;16.67;;
7965;SDS011;4028;43.272;26.932;2023-08-31T05:50:51;19.45;;;16.73;;
7965;SDS011;4028;43.272;26.932;2023-08-31T05:53:16;20.17;;;16.35;;
7965;SDS011;4028;43.272;26.932;2023-08-31T05:55:42;24.38;;;16.58;;
7965;SDS011;4028;43.272;26.932;2023-08-31T05:58:07;19.45;;;16.08;;
7965;SDS011;4028;43.272;26.932;2023-08-31T06:00:32;16.27;;;14.75;;
7965;SDS011;4028;43.272;26.932;2023-08-31T06:02:58;15.80;;;14.35;;
7965;SDS011;4028;43.272;26.932;2023-08-31T06:05:23;17.05;;;15.25;;
7965;SDS011;4028;43.272;26.932;2023-08-31T06:07:49;18.50;;;15.68;;
7965;SDS011;4028;43.272;26.932;2023-08-31T06:10:15;16.83;;;15.13;;
7965;SDS011;4028;43.272;26.932;2023-08-31T06:12:41;22.77;;;15.02;;
7965;SDS011;4028;43.272;26.932;2023-08-31T06:15:06;19.92;;;14.80;;
7965;SDS011;4028;43.272;26.932;2023-08-31T06:17:32;16.52;;;14.60;;
7965;SDS011;4028;43.272;26.932;2023-08-31T06:19:57;16.17;;;14.55;;
7965;SDS011;4028;43.272;26.932;2023-08-31T06:22:23;16.40;;;13.05;;
7965;SDS011;4028;43.272;26.932;2023-08-31T06:24:49;16.13;;;13.18;;
7965;SDS011;4028;43.272;26.932;2023-08-31T06:27:17;12.13;;;10.90;;
7965;SDS011;4028;43.272;26.932;2023-08-31T06:29:42;10.27;;;9.35;;
7965;SDS011;4028;43.272;26.932;2023-08-31T06:32:08;13.95;;;9.80;;
7965;SDS011;4028;43.272;26.932;2023-08-31T06:34:34;10.23;;;8.68;;
7965;SDS011;4028;43.272;26.932;2023-08-31T06:37:00;9.40;;;8.50;;
7965;SDS011;4028;43.272;26.932;2023-08-31T06:39:25;9.60;;;8.38;;
7965;SDS011;4028;43.272;26.932;2023-08-31T06:41:51;9.70;;;8.82;;
7965;SDS011;4028;43.272;26.932;2023-08-31T06:44:17;9.57;;;8.65;;
7965;SDS011;4028;43.272;26.932;2023-08-31T06:46:43;9.02;;;8.15;;
7965;SDS011;4028;43.272;26.932;2023-08-31T06:49:08;9.95;;;8.88;;
7965;SDS011;4028;43.272;26.932;2023-08-31T06:51:35;10.02;;;8.98;;
7965;SDS011;4028;43.272;26.932;2023-08-31T06:54:01;9.77;;;8.98;;
7965;SDS011;4028;43.272;26.932;2023-08-31T06:56:34;10.82;;;9.73;;
7965;SDS011;4028;43.272;26.932;2023-08-31T06:59:00;11.10;;;9.35;;
7965;SDS011;4028;43.272;26.932;2023-08-31T07:01:26;10.30;;;9.13;;
7965;SDS011;4028;43.272;26.932;2023-08-31T07:03:52;9.60;;;8.75;;
7965;SDS011;4028;43.272;26.932;2023-08-31T07:06:18;9.70;;;8.63;;
7965;SDS011;4028;43.272;26.932;2023-08-31T07:08:43;10.90;;;9.80;;
7965;SDS011;4028;43.272;26.932;2023-08-31T07:11:10;14.68;;;9.75;;
7965;SDS011;4028;43.272;26.932;2023-08-31T07:13:36;10.38;;;9.48;;
7965;SDS011;4028;43.272;26.932;2023-08-31T07:16:02;10.40;;;9.30;;
7965;SDS011;4028;43.272;26.932;2023-08-31T07:18:27;9.90;;;9.10;;
7965;SDS011;4028;43.272;26.932;2023-08-31T07:20:53;11.27;;;9.73;;
7965;SDS011;4028;43.272;26.932;2023-08-31T07:23:18;9.63;;;8.70;;
7965;SDS011;4028;43.272;26.932;2023-08-31T07:25:44;11.90;;;9.20;;
7965;SDS011;4028;43.272;26.932;2023-08-31T07:28:09;10.25;;;9.18;;
7965;SDS011;4028;43.272;26.932;2023-08-31T07:30:35;10.48;;;9.55;;
7965;SDS011;4028;43.272;26.932;2023-08-31T07:33:02;10.65;;;9.15;;
7965;SDS011;4028;43.272;26.932;2023-08-31T07:35:29;10.30;;;9.40;;
7965;SDS011;4028;43.272;26.932;2023-08-31T07:37:55;9.88;;;8.90;;
7965;SDS011;4028;43.272;26.932;2023-08-31T07:40:21;9.40;;;8.48;;
7965;SDS011;4028;43.272;26.932;2023-08-31T07:42:46;9.82;;;8.98;;
7965;SDS011;4028;43.272;26.932;2023-08-31T07:45:12;11.93;;;9.07;;
7965;SDS011;4028;43.272;26.932;2023-08-31T07:47:37;17.23;;;9.95;;
7965;SDS011;4028;43.272;26.932;2023-08-31T07:50:03;9.80;;;8.90;;
7965;SDS011;4028;43.272;26.932;2023-08-31T07:52:29;10.55;;;9.45;;
7965;SDS011;4028;43.272;26.932;2023-08-31T07:54:54;12.60;;;10.05;;
7965;SDS011;4028;43.272;26.932;2023-08-31T07:57:20;9.75;;;8.93;;
7965;SDS011;4028;43.272;26.932;2023-08-31T07:59:45;9.27;;;8.35;;
7965;SDS011;4028;43.272;26.932;2023-08-31T08:02:11;9.80;;;8.30;;
7965;SDS011;4028;43.272;26.932;2023-08-31T08:04:36;8.60;;;8.00;;
7965;SDS011;4028;43.272;26.932;2023-08-31T08:07:02;8.55;;;7.82;;
7965;SDS011;4028;43.272;26.932;2023-08-31T08:09:28;8.98;;;8.07;;
7965;SDS011;4028;43.272;26.932;2023-08-31T08:11:55;9.90;;;7.90;;
7965;SDS011;4028;43.272;26.932;2023-08-31T08:14:21;9.05;;;8.15;;
7965;SDS011;4028;43.272;26.932;2023-08-31T08:16:46;11.40;;;8.68;;
7965;SDS011;4028;43.272;26.932;2023-08-31T08:19:12;11.90;;;8.05;;
7965;SDS011;4028;43.272;26.932;2023-08-31T08:21:37;8.82;;;8.02;;
7965;SDS011;4028;43.272;26.932;2023-08-31T08:24:03;8.60;;;7.90;;
7965;SDS011;4028;43.272;26.932;2023-08-31T08:26:28;9.82;;;8.52;;
7965;SDS011;4028;43.272;26.932;2023-08-31T08:28:54;9.43;;;8.52;;
7965;SDS011;4028;43.272;26.932;2023-08-31T08:31:19;9.30;;;8.57;;
7965;SDS011;4028;43.272;26.932;2023-08-31T08:33:45;9.45;;;8.63;;
7965;SDS011;4028;43.272;26.932;2023-08-31T08:36:10;11.52;;;9.27;;
7965;SDS011;4028;43.272;26.932;2023-08-31T08:38:36;9.88;;;8.77;;
7965;SDS011;4028;43.272;26.932;2023-08-31T08:41:05;10.23;;;9.02;;
7965;SDS011;4028;43.272;26.932;2023-08-31T08:43:34;9.57;;;8.80;;
7965;SDS011;4028;43.272;26.932;2023-08-31T08:46:04;10.73;;;9.70;;
7965;SDS011;4028;43.272;26.932;2023-08-31T08:48:32;10.32;;;9.23;;
7965;SDS011;4028;43.272;26.932;2023-08-31T08:51:00;10.70;;;9.70;;
7965;SDS011;4028;43.272;26.932;2023-08-31T08:53:27;13.13;;;9.88;;
7965;SDS011;4028;43.272;26.932;2023-08-31T08:55:53;11.80;;;10.70;;
7965;SDS011;4028;43.272;26.932;2023-08-31T08:58:18;11.10;;;10.20;;
7965;SDS011;4028;43.272;26.932;2023-08-31T09:00:44;11.65;;;10.55;;
7965;SDS011;4028;43.272;26.932;2023-08-31T09:03:11;11.50;;;10.35;;
7965;SDS011;4028;43.272;26.932;2023-08-31T09:05:37;12.43;;;10.90;;
7965;SDS011;4028;43.272;26.932;2023-08-31T09:08:06;11.40;;;10.32;;
7965;SDS011;4028;43.272;26.932;2023-08-31T09:10:38;12.05;;;10.85;;
7965;SDS011;4028;43.272;26.932;2023-08-31T09:13:14;10.43;;;9.52;;
7965;SDS011;4028;43.272;26.932;2023-08-31T09:15:46;10.82;;;9.93;;
7965;SDS011;4028;43.272;26.932;2023-08-31T09:20:47;10.88;;;9.88;;
7965;SDS011;4028;43.272;26.932;2023-08-31T09:23:16;10.80;;;9.73;;
7965;SDS011;4028;43.272;26.932;2023-08-31T09:25:45;14.23;;;9.98;;
7965;SDS011;4028;43.272;26.932;2023-08-31T09:28:16;10.18;;;9.18;;
7965;SDS011;4028;43.272;26.932;2023-08-31T09:30:45;10.25;;;9.27;;
7965;SDS011;4028;43.272;26.932;2023-08-31T09:33:16;14.85;;;10.23;;
7965;SDS011;4028;43.272;26.932;2023-08-31T09:35:49;11.77;;;10.48;;
7965;SDS011;4028;43.272;26.932;2023-08-31T09:38:16;11.18;;;10.15;;
7965;SDS011;4028;43.272;26.932;2023-08-31T09:40:42;10.65;;;9.77;;
7965;SDS011;4028;43.272;26.932;2023-08-31T09:43:08;12.35;;;10.77;;
7965;SDS011;4028;43.272;26.932;2023-08-31T09:45:34;11.18;;;10.27;;
7965;SDS011;4028;43.272;26.932;2023-08-31T09:48:01;10.80;;;9.90;;
7965;SDS011;4028;43.272;26.932;2023-08-31T09:50:31;10.90;;;10.00;;
7965;SDS011;4028;43.272;26.932;2023-08-31T09:53:00;13.45;;;10.30;;
7965;SDS011;4028;43.272;26.932;2023-08-31T09:55:29;11.05;;;10.10;;
7965;SDS011;4028;43.272;26.932;2023-08-31T09:57:56;12.68;;;10.93;;
7965;SDS011;4028;43.272;26.932;2023-08-31T10:00:26;14.82;;;10.43;;
7965;SDS011;4028;43.272;26.932;2023-08-31T10:02:54;11.70;;;10.70;;
7965;SDS011;4028;43.272;26.932;2023-08-31T10:05:22;12.15;;;10.23;;
7965;SDS011;4028;43.272;26.932;2023-08-31T10:07:49;10.23;;;9.10;;
7965;SDS011;4028;43.272;26.932;2023-08-31T10:10:16;10.52;;;9.73;;
7965;SDS011;4028;43.272;26.932;2023-08-31T10:12:43;11.35;;;9.38;;
7965;SDS011;4028;43.272;26.932;2023-08-31T10:15:11;10.63;;;9.57;;
7965;SDS011;4028;43.272;26.932;2023-08-31T10:17:37;10.13;;;8.90;;
7965;SDS011;4028;43.272;26.932;2023-08-31T10:20:05;10.32;;;9.05;;
7965;SDS011;4028;43.272;26.932;2023-08-31T10:22:33;9.90;;;8.90;;
7965;SDS011;4028;43.272;26.932;2023-08-31T10:25:02;9.93;;;8.90;;
7965;SDS011;4028;43.272;26.932;2023-08-31T10:27:37;9.65;;;8.85;;
7965;SDS011;4028;43.272;26.932;2023-08-31T10:32:46;9.85;;;8.73;;
7965;SDS011;4028;43.272;26.932;2023-08-31T10:35:26;10.60;;;9.57;;
7965;SDS011;4028;43.272;26.932;2023-08-31T10:38:13;8.98;;;8.05;;
7965;SDS011;4028;43.272;26.932;2023-08-31T10:43:28;10.10;;;9.20;;
7965;SDS011;4028;43.272;26.932;2023-08-31T10:48:53;9.98;;;8.95;;
7965;SDS011;4028;43.272;26.932;2023-08-31T10:51:27;9.70;;;8.65;;
7965;SDS011;4028;43.272;26.932;2023-08-31T11:02:30;11.00;;;8.90;;
7965;SDS011;4028;43.272;26.932;2023-08-31T11:07:51;10.25;;;8.65;;
7965;SDS011;4028;43.272;26.932;2023-08-31T11:10:23;9.35;;;8.43;;
7965;SDS011;4028;43.272;26.932;2023-08-31T11:12:52;8.25;;;7.47;;
7965;SDS011;4028;43.272;26.932;2023-08-31T11:15:23;9.57;;;8.63;;
7965;SDS011;4028;43.272;26.932;2023-08-31T11:17:51;9.18;;;8.27;;
7965;SDS011;4028;43.272;26.932;2023-08-31T11:20:18;10.20;;;9.20;;
7965;SDS011;4028;43.272;26.932;2023-08-31T11:22:46;13.20;;;9.23;;
7965;SDS011;4028;43.272;26.932;2023-08-31T11:25:19;8.20;;;7.50;;
7965;SDS011;4028;43.272;26.932;2023-08-31T11:27:52;9.15;;;8.45;;
7965;SDS011;4028;43.272;26.932;2023-08-31T11:30:31;9.20;;;8.30;;
7965;SDS011;4028;43.272;26.932;2023-08-31T11:33:01;10.27;;;9.38;;
7965;SDS011;4028;43.272;26.932;2023-08-31T11:35:34;8.77;;;8.07;;
7965;SDS011;4028;43.272;26.932;2023-08-31T11:38:01;11.30;;;8.73;;
7965;SDS011;4028;43.272;26.932;2023-08-31T11:40:28;9.52;;;8.27;;
7965;SDS011;4028;43.272;26.932;2023-08-31T11:42:54;11.25;;;8.63;;
7965;SDS011;4028;43.272;26.932;2023-08-31T11:45:20;10.77;;;9.07;;
7965;SDS011;4028;43.272;26.932;2023-08-31T11:47:47;9.18;;;8.35;;
7965;SDS011;4028;43.272;26.932;2023-08-31T11:50:14;9.20;;;8.25;;
7965;SDS011;4028;43.272;26.932;2023-08-31T11:52:41;10.50;;;8.52;;
7965;SDS011;4028;43.272;26.932;2023-08-31T11:55:11;9.18;;;8.40;;
7965;SDS011;4028;43.272;26.932;2023-08-31T11:57:37;8.95;;;8.15;;
7965;SDS011;4028;43.272;26.932;2023-08-31T12:00:03;11.02;;;8.75;;
7965;SDS011;4028;43.272;26.932;2023-08-31T12:02:40;9.20;;;8.50;;
7965;SDS011;4028;43.272;26.932;2023-08-31T12:05:05;10.85;;;8.65;;
7965;SDS011;4028;43.272;26.932;2023-08-31T12:07:31;9.38;;;8.45;;
7965;SDS011;4028;43.272;26.932;2023-08-31T12:10:03;9.13;;;8.23;;
7965;SDS011;4028;43.272;26.932;2023-08-31T12:12:29;8.88;;;8.07;;
7965;SDS011;4028;43.272;26.932;2023-08-31T12:14:57;9.27;;;8.40;;
7965;SDS011;4028;43.272;26.932;2023-08-31T12:17:26;8.65;;;7.85;;
7965;SDS011;4028;43.272;26.932;2023-08-31T12:19:51;8.77;;;7.95;;
7965;SDS011;4028;43.272;26.932;2023-08-31T12:22:17;8.55;;;7.75;;
7965;SDS011;4028;43.272;26.932;2023-08-31T12:24:42;8.75;;;7.95;;
7965;SDS011;4028;43.272;26.932;2023-08-31T12:27:08;8.68;;;7.97;;
7965;SDS011;4028;43.272;26.932;2023-08-31T12:29:34;8.52;;;7.72;;
7965;SDS011;4028;43.272;26.932;2023-08-31T12:32:00;7.75;;;7.05;;
7965;SDS011;4028;43.272;26.932;2023-08-31T12:34:26;7.53;;;6.90;;
7965;SDS011;4028;43.272;26.932;2023-08-31T12:36:51;8.27;;;7.63;;
7965;SDS011;4028;43.272;26.932;2023-08-31T12:39:17;8.88;;;8.10;;
7965;SDS011;4028;43.272;26.932;2023-08-31T12:41:43;8.70;;;7.78;;
7965;SDS011;4028;43.272;26.932;2023-08-31T12:44:09;10.18;;;7.57;;
7965;SDS011;4028;43.272;26.932;2023-08-31T12:46:34;8.27;;;7.53;;
7965;SDS011;4028;43.272;26.932;2023-08-31T12:49:00;10.18;;;7.90;;
7965;SDS011;4028;43.272;26.932;2023-08-31T12:51:26;8.85;;;8.02;;
7965;SDS011;4028;43.272;26.932;2023-08-31T12:53:53;9.00;;;8.20;;
7965;SDS011;4028;43.272;26.932;2023-08-31T12:56:18;10.50;;;7.82;;
7965;SDS011;4028;43.272;26.932;2023-08-31T12:58:50;11.57;;;7.75;;
7965;SDS011;4028;43.272;26.932;2023-08-31T13:01:17;8.43;;;7.57;;
7965;SDS011;4028;43.272;26.932;2023-08-31T13:03:44;8.70;;;7.80;;
7965;SDS011;4028;43.272;26.932;2023-08-31T13:06:09;8.52;;;7.72;;
7965;SDS011;4028;43.272;26.932;2023-08-31T13:08:35;8.85;;;8.00;;
7965;SDS011;4028;43.272;26.932;2023-08-31T13:11:00;11.35;;;8.10;;
7965;SDS011;4028;43.272;26.932;2023-08-31T13:13:26;8.52;;;7.60;;
7965;SDS011;4028;43.272;26.932;2023-08-31T13:15:51;9.50;;;6.97;;
7965;SDS011;4028;43.272;26.932;2023-08-31T13:18:17;9.50;;;7.18;;
7965;SDS011;4028;43.272;26.932;2023-08-31T13:20:49;7.57;;;6.80;;
7965;SDS011;4028;43.272;26.932;2023-08-31T13:23:17;8.27;;;6.95;;
7965;SDS011;4028;43.272;26.932;2023-08-31T13:25:43;8.38;;;7.32;;
7965;SDS011;4028;43.272;26.932;2023-08-31T13:28:09;8.05;;;7.20;;
7965;SDS011;4028;43.272;26.932;2023-08-31T13:30:34;11.45;;;7.43;;
7965;SDS011;4028;43.272;26.932;2023-08-31T13:33:00;9.13;;;8.23;;
7965;SDS011;4028;43.272;26.932;2023-08-31T13:35:25;8.45;;;7.30;;
7965;SDS011;4028;43.272;26.932;2023-08-31T13:37:51;8.30;;;7.57;;
7965;SDS011;4028;43.272;26.932;2023-08-31T13:40:17;8.32;;;7.53;;
7965;SDS011;4028;43.272;26.932;2023-08-31T13:42:59;9.10;;;7.10;;
7965;SDS011;4028;43.272;26.932;2023-08-31T13:45:33;7.30;;;6.53;;
7965;SDS011;4028;43.272;26.932;2023-08-31T13:47:59;7.32;;;6.63;;
7965;SDS011;4028;43.272;26.932;2023-08-31T13:50:25;8.18;;;7.38;;
7965;SDS011;4028;43.272;26.932;2023-08-31T13:52:52;9.07;;;8.02;;
7965;SDS011;4028;43.272;26.932;2023-08-31T13:55:17;8.93;;;7.95;;
7965;SDS011;4028;43.272;26.932;2023-08-31T13:57:43;8.77;;;7.93;;
7965;SDS011;4028;43.272;26.932;2023-08-31T14:00:08;9.40;;;8.20;;
7965;SDS011;4028;43.272;26.932;2023-08-31T14:02:35;12.48;;;8.23;;
7965;SDS011;4028;43.272;26.932;2023-08-31T14:05:02;9.00;;;7.40;;
7965;SDS011;4028;43.272;26.932;2023-08-31T14:07:29;8.25;;;7.45;;
7965;SDS011;4028;43.272;26.932;2023-08-31T14:09:54;13.05;;;7.93;;
7965;SDS011;4028;43.272;26.932;2023-08-31T14:12:20;7.75;;;7.05;;
7965;SDS011;4028;43.272;26.932;2023-08-31T14:14:46;12.32;;;7.35;;
7965;SDS011;4028;43.272;26.932;2023-08-31T14:17:12;9.68;;;6.93;;
7965;SDS011;4028;43.272;26.932;2023-08-31T14:19:37;8.95;;;6.68;;
7965;SDS011;4028;43.272;26.932;2023-08-31T14:22:04;7.95;;;7.15;;
7965;SDS011;4028;43.272;26.932;2023-08-31T14:24:30;8.15;;;6.68;;
7965;SDS011;4028;43.272;26.932;2023-08-31T14:26:55;7.95;;;6.40;;
7965;SDS011;4028;43.272;26.932;2023-08-31T14:29:21;8.00;;;6.22;;
7965;SDS011;4028;43.272;26.932;2023-08-31T14:31:47;8.95;;;6.25;;
7965;SDS011;4028;43.272;26.932;2023-08-31T14:34:12;7.30;;;5.72;;
7965;SDS011;4028;43.272;26.932;2023-08-31T14:36:38;6.78;;;6.07;;
7965;SDS011;4028;43.272;26.932;2023-08-31T14:39:03;6.70;;;5.93;;
7965;SDS011;4028;43.272;26.932;2023-08-31T14:41:31;6.25;;;5.65;;
7965;SDS011;4028;43.272;26.932;2023-08-31T14:43:57;5.90;;;5.22;;
7965;SDS011;4028;43.272;26.932;2023-08-31T14:46:22;7.03;;;5.70;;
7965;SDS011;4028;43.272;26.932;2023-08-31T14:48:49;7.32;;;5.70;;
7965;SDS011;4028;43.272;26.932;2023-08-31T14:51:15;7.10;;;5.28;;
7965;SDS011;4028;43.272;26.932;2023-08-31T14:53:41;8.07;;;5.38;;
7965;SDS011;4028;43.272;26.932;2023-08-31T14:56:07;6.25;;;5.40;;
7965;SDS011;4028;43.272;26.932;2023-08-31T14:58:33;5.22;;;4.72;;
7965;SDS011;4028;43.272;26.932;2023-08-31T15:00:58;7.07;;;5.32;;
7965;SDS011;4028;43.272;26.932;2023-08-31T15:03:24;5.82;;;5.22;;
7965;SDS011;4028;43.272;26.932;2023-08-31T15:05:49;5.82;;;5.32;;
7965;SDS011;4028;43.272;26.932;2023-08-31T15:08:15;8.00;;;5.30;;
7965;SDS011;4028;43.272;26.932;2023-08-31T15:10:41;6.30;;;5.57;;
7965;SDS011;4028;43.272;26.932;2023-08-31T15:13:07;6.03;;;4.97;;
7965;SDS011;4028;43.272;26.932;2023-08-31T15:15:32;7.57;;;5.78;;